createdAt,value
2022-09-28T00:00:20.290Z,99.90
2022-09-28T00:02:23.088Z,99.90
2022-09-28T00:04:25.895Z,99.90
2022-09-28T00:06:30.982Z,99.90
2022-09-28T00:08:34.956Z,99.90
2022-09-28T00:10:37.624Z,99.90
2022-09-28T00:12:40.393Z,99.90
2022-09-28T00:14:44.802Z,99.90
2022-09-28T00:16:48.535Z,99.90
2022-09-28T00:18:52.242Z,99.90
2022-09-28T00:21:01.590Z,99.90
2022-09-28T00:23:04.293Z,99.90
2022-09-28T00:25:07.961Z,99.90
2022-09-28T00:27:10.658Z,99.90
2022-09-28T00:29:22.153Z,99.90
2022-09-28T00:31:26.404Z,99.90
2022-09-28T00:33:29.144Z,99.90
2022-09-28T00:35:31.838Z,99.90
2022-09-28T00:37:34.542Z,99.90
2022-09-28T00:39:38.301Z,99.90
2022-09-28T00:41:41.065Z,99.90
2022-09-28T00:43:43.746Z,99.90
2022-09-28T00:45:46.529Z,99.90
2022-09-28T00:47:51.519Z,99.90
2022-09-28T00:49:56.001Z,99.90
2022-09-28T00:51:58.703Z,99.90
2022-09-28T00:54:01.382Z,99.90
2022-09-28T00:56:07.377Z,99.90
2022-09-28T00:58:11.489Z,99.90
2022-09-28T01:00:14.777Z,99.90
2022-09-28T01:02:17.536Z,99.90
2022-09-28T01:04:21.625Z,99.90
2022-09-28T01:06:27.418Z,99.90
2022-09-28T01:08:30.711Z,99.90
2022-09-28T01:10:33.416Z,99.90
2022-09-28T01:12:36.125Z,99.90
2022-09-28T01:14:38.981Z,99.90
2022-09-28T01:16:43.200Z,99.90
2022-09-28T01:18:48.631Z,99.90
2022-09-28T01:20:58.118Z,99.90
2022-09-28T01:23:24.539Z,99.90
2022-09-28T01:25:31.385Z,99.90
2022-09-28T01:27:36.104Z,99.90
2022-09-28T01:29:44.749Z,99.90
2022-09-28T01:31:49.607Z,99.90
2022-09-28T01:33:56.534Z,99.90
2022-09-28T01:36:03.646Z,99.90
2022-09-28T01:38:07.654Z,99.90
2022-09-28T01:40:10.471Z,99.90
2022-09-28T01:42:15.487Z,99.90
2022-09-28T01:44:20.175Z,99.90
2022-09-28T01:46:23.442Z,99.90
2022-09-28T01:48:29.997Z,99.90
2022-09-28T01:50:36.225Z,99.90
2022-09-28T01:52:41.385Z,99.90
2022-09-28T01:54:45.948Z,99.90
2022-09-28T01:56:50.211Z,99.90
2022-09-28T01:58:54.293Z,99.90
2022-09-28T02:01:00.904Z,99.90
2022-09-28T02:03:09.542Z,99.90
2022-09-28T02:05:14.682Z,99.90
2022-09-28T02:07:19.197Z,99.90
2022-09-28T02:09:23.097Z,99.90
2022-09-28T02:11:25.813Z,99.90
2022-09-28T02:13:30.631Z,99.90
2022-09-28T02:15:36.297Z,99.90
2022-09-28T02:17:40.583Z,99.90
2022-09-28T02:19:43.260Z,99.90
2022-09-28T02:21:48.758Z,99.90
2022-09-28T02:23:53.388Z,99.90
2022-09-28T02:25:59.911Z,99.90
2022-09-28T02:28:03.410Z,99.90
2022-09-28T02:30:06.854Z,99.90
2022-09-28T02:32:09.562Z,99.90
2022-09-28T02:34:13.579Z,99.90
2022-09-28T02:36:16.263Z,99.90
2022-09-28T02:38:18.973Z,99.90
2022-09-28T02:40:22.907Z,99.90
2022-09-28T02:42:26.273Z,99.90
2022-09-28T02:44:50.470Z,99.90
2022-09-28T02:46:55.065Z,99.90
2022-09-28T02:49:21.321Z,99.90
2022-09-28T02:51:35.872Z,99.90
2022-09-28T02:53:46.999Z,99.90
2022-09-28T02:55:56.668Z,99.90
2022-09-28T02:58:19.958Z,99.90
2022-09-28T03:00:23.179Z,99.90
2022-09-28T03:02:29.000Z,99.90
2022-09-28T03:04:34.609Z,99.90
2022-09-28T03:06:41.304Z,99.90
2022-09-28T03:08:45.457Z,99.90
2022-09-28T03:10:49.658Z,99.90
2022-09-28T03:12:52.383Z,99.90
2022-09-28T03:15:07.490Z,99.90
2022-09-28T03:17:10.185Z,99.90
2022-09-28T03:19:13.178Z,99.90
2022-09-28T03:21:16.441Z,99.90
2022-09-28T03:23:24.739Z,99.90
2022-09-28T03:25:27.917Z,99.90
2022-09-28T03:27:30.614Z,99.90
2022-09-28T03:29:34.379Z,99.90
2022-09-28T03:31:37.115Z,99.90
2022-09-28T03:33:39.885Z,99.90
2022-09-28T03:35:42.625Z,99.90
2022-09-28T03:37:45.381Z,99.90
2022-09-28T03:39:49.401Z,99.90
2022-09-28T03:41:52.091Z,99.90
2022-09-28T03:43:54.884Z,99.90
2022-09-28T03:45:58.367Z,99.90
2022-09-28T03:48:01.220Z,99.90
2022-09-28T03:50:03.985Z,99.90
2022-09-28T03:52:06.753Z,99.90
2022-09-28T03:54:09.632Z,99.90
2022-09-28T03:56:14.513Z,99.90
2022-09-28T03:58:17.406Z,99.90
2022-09-28T04:00:20.694Z,99.90
2022-09-28T04:02:23.446Z,99.90
2022-09-28T04:04:26.158Z,99.90
2022-09-28T04:06:29.189Z,99.90
2022-09-28T04:08:31.883Z,99.90
2022-09-28T04:10:34.571Z,99.90
2022-09-28T04:12:38.611Z,99.90
2022-09-28T04:14:41.295Z,99.90
2022-09-28T04:16:44.203Z,99.90
2022-09-28T04:18:47.678Z,99.90
2022-09-28T04:20:59.210Z,99.90
2022-09-28T04:23:01.906Z,99.90
2022-09-28T04:25:04.868Z,99.90
2022-09-28T04:27:25.092Z,99.90
2022-09-28T04:29:29.095Z,99.90
2022-09-28T04:31:31.843Z,99.90
2022-09-28T04:33:34.606Z,99.90
2022-09-28T04:35:37.286Z,99.90
2022-09-28T04:37:40.198Z,99.90
2022-09-28T04:39:47.493Z,99.90
2022-09-28T04:41:51.139Z,99.90
2022-09-28T04:43:53.890Z,99.90
2022-09-28T04:46:01.080Z,99.90
2022-09-28T04:48:03.826Z,99.90
2022-09-28T04:50:07.372Z,99.90
2022-09-28T04:52:12.551Z,99.90
2022-09-28T04:54:18.707Z,99.90
2022-09-28T04:56:21.402Z,99.90
2022-09-28T04:58:24.270Z,99.90
2022-09-28T05:00:27.006Z,99.90
2022-09-28T05:02:31.113Z,99.90
2022-09-28T05:04:33.855Z,99.90
2022-09-28T05:06:36.534Z,99.90
2022-09-28T05:08:39.217Z,99.90
2022-09-28T05:10:41.896Z,99.90
2022-09-28T05:12:44.597Z,99.90
2022-09-28T05:14:47.323Z,99.90
2022-09-28T05:16:50.142Z,99.90
2022-09-28T05:18:57.025Z,99.90
2022-09-28T05:20:59.794Z,99.90
2022-09-28T05:23:02.481Z,99.90
2022-09-28T05:25:05.640Z,99.90
2022-09-28T05:27:08.334Z,99.90
2022-09-28T05:29:11.243Z,99.90
2022-09-28T05:31:13.992Z,99.90
2022-09-28T05:33:16.681Z,99.90
2022-09-28T05:35:20.994Z,99.90
2022-09-28T05:37:23.669Z,99.90
2022-09-28T05:39:26.363Z,99.90
2022-09-28T05:41:29.302Z,99.90
2022-09-28T05:43:32.818Z,99.90
2022-09-28T05:45:35.536Z,99.90
2022-09-28T05:47:38.874Z,99.90
2022-09-28T05:49:42.458Z,99.90
2022-09-28T05:51:46.479Z,99.90
2022-09-28T05:53:49.180Z,99.90
2022-09-28T05:55:51.855Z,99.90
2022-09-28T05:57:54.940Z,99.90
2022-09-28T05:59:57.618Z,99.90
2022-09-28T06:02:00.354Z,99.90
2022-09-28T06:04:03.091Z,99.90
2022-09-28T06:06:05.877Z,99.90
2022-09-28T06:08:10.682Z,99.90
2022-09-28T06:10:13.421Z,99.90
2022-09-28T06:12:16.680Z,99.90
2022-09-28T06:14:19.421Z,99.90
2022-09-28T06:16:22.164Z,99.90
2022-09-28T06:18:24.913Z,99.90
2022-09-28T06:20:27.825Z,99.90
2022-09-28T06:22:30.514Z,99.90
2022-09-28T06:24:34.567Z,99.90
2022-09-28T06:26:37.241Z,99.90
2022-09-28T06:28:39.933Z,99.90
2022-09-28T06:30:43.240Z,99.90
2022-09-28T06:32:45.944Z,99.90
2022-09-28T06:34:50.742Z,99.90
2022-09-28T06:36:56.767Z,99.90
2022-09-28T06:38:59.469Z,99.90
2022-09-28T06:41:03.536Z,99.90
2022-09-28T06:43:10.174Z,99.90
2022-09-28T06:45:13.450Z,99.90
2022-09-28T06:47:16.373Z,99.90
2022-09-28T06:49:19.668Z,99.90
2022-09-28T06:51:22.488Z,99.90
2022-09-28T06:53:25.518Z,99.90
2022-09-28T06:55:28.419Z,99.90
2022-09-28T06:57:32.506Z,99.90
2022-09-28T06:59:35.210Z,99.90
2022-09-28T07:01:37.946Z,99.90
2022-09-28T07:03:40.733Z,99.90
2022-09-28T07:05:44.420Z,99.90
2022-09-28T07:07:47.558Z,99.90
2022-09-28T07:09:55.340Z,99.90
2022-09-28T07:11:59.236Z,99.90
2022-09-28T07:14:03.270Z,99.90
2022-09-28T07:16:06.165Z,99.90
2022-09-28T07:18:08.979Z,99.90
2022-09-28T07:20:18.871Z,99.90
2022-09-28T07:22:36.283Z,99.90
2022-09-28T07:24:44.607Z,99.90
2022-09-28T07:26:47.281Z,99.90
2022-09-28T07:28:49.983Z,99.90
2022-09-28T07:30:54.028Z,99.90
2022-09-28T07:32:56.762Z,99.90
2022-09-28T07:34:59.449Z,99.90
2022-09-28T07:37:02.183Z,99.90
2022-09-28T07:39:05.019Z,99.90
2022-09-28T07:41:14.059Z,99.90
2022-09-28T07:43:20.633Z,99.90
2022-09-28T07:45:24.474Z,99.90
2022-09-28T07:47:33.851Z,99.90
2022-09-28T07:49:37.659Z,99.90
2022-09-28T07:51:40.558Z,99.90
2022-09-28T07:53:43.253Z,99.90
2022-09-28T07:55:51.022Z,99.90
2022-09-28T07:57:56.247Z,99.90
2022-09-28T08:00:00.194Z,99.90
2022-09-28T08:02:02.963Z,99.90
2022-09-28T08:04:07.033Z,99.90
2022-09-28T08:06:12.552Z,99.90
2022-09-28T08:08:15.269Z,99.90
2022-09-28T08:10:18.148Z,99.90
2022-09-28T08:12:21.104Z,99.90
2022-09-28T08:14:24.640Z,99.90
2022-09-28T08:16:28.765Z,99.90
2022-09-28T08:18:31.798Z,99.90
2022-09-28T08:20:53.483Z,99.90
2022-09-28T08:22:56.798Z,99.90
2022-09-28T08:24:59.507Z,99.90
2022-09-28T08:27:02.198Z,99.90
2022-09-28T08:29:05.006Z,99.90
2022-09-28T08:31:07.794Z,99.90
2022-09-28T08:33:10.525Z,99.90
2022-09-28T08:35:13.252Z,99.90
2022-09-28T08:37:17.260Z,99.90
2022-09-28T08:39:19.990Z,99.90
2022-09-28T08:41:27.808Z,99.90
2022-09-28T08:43:44.608Z,99.90
2022-09-28T08:45:47.336Z,99.90
2022-09-28T08:48:24.484Z,99.90
2022-09-28T08:50:28.758Z,99.90
2022-09-28T08:52:34.454Z,99.90
2022-09-28T08:54:39.662Z,99.90
2022-09-28T08:56:43.728Z,99.90
2022-09-28T08:58:48.163Z,99.90
2022-09-28T09:00:51.959Z,99.90
2022-09-28T09:02:54.845Z,99.90
2022-09-28T09:04:57.784Z,99.90
2022-09-28T09:07:11.139Z,99.90
2022-09-28T09:09:18.367Z,99.90
2022-09-28T09:11:29.812Z,99.90
2022-09-28T09:13:54.750Z,99.90
2022-09-28T09:15:58.596Z,99.90
2022-09-28T09:18:08.595Z,99.90
2022-09-28T09:20:17.860Z,99.90
2022-09-28T09:22:27.260Z,99.90
2022-09-28T09:24:35.370Z,99.90
2022-09-28T09:26:39.526Z,99.90
2022-09-28T09:29:01.451Z,99.90
2022-09-28T09:31:09.402Z,99.90
2022-09-28T09:33:41.494Z,99.90
2022-09-28T09:35:59.753Z,99.90
2022-09-28T09:38:11.403Z,99.90
2022-09-28T09:40:26.183Z,99.90
2022-09-28T09:42:38.400Z,99.90
2022-09-28T09:45:09.463Z,99.90
2022-09-28T09:47:13.439Z,99.90
2022-09-28T09:49:17.249Z,99.90
2022-09-28T09:51:24.880Z,99.90
2022-09-28T09:53:29.713Z,99.90
2022-09-28T09:55:37.124Z,99.90
2022-09-28T09:57:41.118Z,99.90
2022-09-28T09:59:44.489Z,99.90
2022-09-28T10:01:47.400Z,99.90
2022-09-28T10:03:50.154Z,99.90
2022-09-28T10:05:56.171Z,99.90
2022-09-28T10:08:01.711Z,99.90
2022-09-28T10:10:04.802Z,95.80
2022-09-28T10:12:11.872Z,99.90
2022-09-28T10:14:16.679Z,43.40
2022-09-28T10:16:19.590Z,1.00
2022-09-28T10:18:22.369Z,1.00
2022-09-28T10:20:25.573Z,1.00
2022-09-28T10:22:28.674Z,1.00
2022-09-28T10:24:32.329Z,18.50
2022-09-28T10:26:36.478Z,19.90
2022-09-28T10:28:44.166Z,15.50
2022-09-28T10:30:46.917Z,11.60
2022-09-28T10:32:50.350Z,1.00
2022-09-28T10:34:54.908Z,1.00
2022-09-28T10:37:00.442Z,1.00
2022-09-28T10:39:03.129Z,1.00
2022-09-28T10:41:10.550Z,1.00
2022-09-28T10:43:19.640Z,1.00
2022-09-28T10:45:24.104Z,1.00
2022-09-28T10:47:27.783Z,1.00
2022-09-28T10:49:31.349Z,1.00
2022-09-28T10:51:43.355Z,1.00
2022-09-28T10:53:59.555Z,1.00
2022-09-28T10:56:03.399Z,1.00
2022-09-28T10:58:26.808Z,1.00
2022-09-28T11:00:36.091Z,1.00
2022-09-28T11:02:38.995Z,1.00
2022-09-28T11:04:42.458Z,1.00
2022-09-28T11:06:45.394Z,1.00
2022-09-28T11:08:48.074Z,1.00
2022-09-28T11:10:50.769Z,1.00
2022-09-28T11:12:53.481Z,1.00
2022-09-28T11:15:00.158Z,1.00
2022-09-28T11:17:24.979Z,1.00
2022-09-28T11:19:28.948Z,1.00
2022-09-28T11:21:32.386Z,1.00
2022-09-28T11:23:35.079Z,1.00
2022-09-28T11:25:37.774Z,1.00
2022-09-28T11:27:40.459Z,1.00
2022-09-28T11:29:43.951Z,1.00
2022-09-28T11:31:46.635Z,1.00
2022-09-28T11:33:50.646Z,1.00
2022-09-28T11:35:57.066Z,1.00
2022-09-28T11:38:09.970Z,1.00
2022-09-28T11:40:22.004Z,1.00
2022-09-28T11:42:30.555Z,1.00
2022-09-28T11:44:41.280Z,1.00
2022-09-28T11:46:48.655Z,1.00
2022-09-28T11:48:55.008Z,1.00
2022-09-28T11:50:59.295Z,1.00
2022-09-28T11:53:10.089Z,1.00
2022-09-28T11:55:15.075Z,1.00
2022-09-28T11:57:19.297Z,1.00
2022-09-28T11:59:25.909Z,1.00
2022-09-28T12:01:30.070Z,1.00
2022-09-28T12:03:36.783Z,1.00
2022-09-28T12:05:42.245Z,1.00
2022-09-28T12:07:46.099Z,1.00
2022-09-28T12:09:51.106Z,1.00
2022-09-28T12:11:55.582Z,1.00
2022-09-28T12:13:58.362Z,1.00
2022-09-28T12:16:38.980Z,1.00
2022-09-28T12:18:26.886Z,1.00
2022-09-28T12:20:31.654Z,1.00
2022-09-28T12:22:38.042Z,1.00
2022-09-28T12:24:43.042Z,1.00
2022-09-28T12:26:48.349Z,1.00
2022-09-28T12:28:51.494Z,1.00
2022-09-28T12:30:54.238Z,1.00
2022-09-28T12:32:58.208Z,1.00
2022-09-28T12:35:00.898Z,1.00
2022-09-28T12:37:16.665Z,1.00
2022-09-28T12:39:58.461Z,1.00
2022-09-28T12:42:08.937Z,1.00
2022-09-28T12:44:26.289Z,1.00
2022-09-28T12:46:42.047Z,1.00
2022-09-28T12:49:51.531Z,1.00
2022-09-28T12:51:37.866Z,1.00
2022-09-28T12:53:50.714Z,1.00
2022-09-28T12:55:58.387Z,1.00
2022-09-28T12:58:04.126Z,1.00
2022-09-28T13:00:09.485Z,1.00
2022-09-28T13:02:27.628Z,1.00
2022-09-28T13:04:47.241Z,1.00
2022-09-28T13:06:56.954Z,1.00
2022-09-28T13:09:13.047Z,1.00
2022-09-28T13:11:18.896Z,1.00
2022-09-28T13:13:29.130Z,1.00
2022-09-28T13:15:36.715Z,1.00
2022-09-28T13:17:46.878Z,1.00
2022-09-28T13:19:51.827Z,1.00
2022-09-28T13:21:57.784Z,1.00
2022-09-28T13:24:20.728Z,1.00
2022-09-28T13:26:27.104Z,1.00
2022-09-28T13:28:29.866Z,1.00
2022-09-28T13:30:33.090Z,1.00
2022-09-28T13:32:36.902Z,1.00
2022-09-28T13:34:39.597Z,1.00
2022-09-28T13:36:47.258Z,1.00
2022-09-28T13:38:52.082Z,1.00
2022-09-28T13:41:14.737Z,1.00
2022-09-28T13:43:21.506Z,1.00
2022-09-28T13:45:34.154Z,1.00
2022-09-28T13:47:56.115Z,1.00
2022-09-28T13:50:04.844Z,1.00
2022-09-28T13:52:08.722Z,1.00
2022-09-28T13:54:51.320Z,1.00
2022-09-28T13:56:57.111Z,1.00
2022-09-28T13:59:02.385Z,1.00
2022-09-28T14:01:07.759Z,1.00
2022-09-28T14:03:14.914Z,1.00
2022-09-28T14:05:46.317Z,1.00
2022-09-28T14:07:59.637Z,1.00
2022-09-28T14:10:18.283Z,1.00
2022-09-28T14:12:43.217Z,1.00
2022-09-28T14:14:49.767Z,1.00
2022-09-28T14:16:53.191Z,1.00
2022-09-28T14:18:56.645Z,1.00
2022-09-28T14:21:13.370Z,1.00
2022-09-28T14:23:27.078Z,1.00
2022-09-28T14:25:31.693Z,1.00
2022-09-28T14:28:02.033Z,1.00
2022-09-28T14:30:18.568Z,1.00
2022-09-28T14:32:25.395Z,1.00
2022-09-28T14:34:34.115Z,1.00
2022-09-28T14:36:56.596Z,1.00
2022-09-28T14:39:17.041Z,1.00
2022-09-28T14:41:28.680Z,1.00
2022-09-28T14:43:36.621Z,1.00
2022-09-28T14:45:44.261Z,1.00
2022-09-28T14:48:05.746Z,1.00
2022-09-28T14:50:19.416Z,1.00
2022-09-28T14:52:40.347Z,1.00
2022-09-28T14:54:49.926Z,1.00
2022-09-28T14:57:08.113Z,1.00
2022-09-28T14:59:11.986Z,1.00
2022-09-28T15:01:20.041Z,1.00
2022-09-28T15:03:22.800Z,1.00
2022-09-28T15:05:28.272Z,1.00
2022-09-28T15:07:34.238Z,1.00
2022-09-28T15:09:37.960Z,1.00
2022-09-28T15:11:41.624Z,1.00
2022-09-28T15:13:44.377Z,1.00
2022-09-28T15:15:50.381Z,1.00
2022-09-28T15:17:59.146Z,1.00
2022-09-28T15:20:10.926Z,1.00
2022-09-28T15:22:17.156Z,1.00
2022-09-28T15:24:31.391Z,1.00
2022-09-28T15:26:34.345Z,1.00
2022-09-28T15:28:39.253Z,1.00
2022-09-28T15:30:41.998Z,1.00
2022-09-28T15:32:44.730Z,1.00
2022-09-28T15:34:56.766Z,1.00
2022-09-28T15:36:59.447Z,1.00
2022-09-28T15:39:02.694Z,1.00
2022-09-28T15:41:06.220Z,1.00
2022-09-28T15:43:26.736Z,1.00
2022-09-28T15:45:31.997Z,1.00
2022-09-28T15:47:35.274Z,1.00
2022-09-28T15:49:41.159Z,1.00
2022-09-28T15:51:49.510Z,1.00
2022-09-28T15:53:55.996Z,1.00
2022-09-28T15:56:01.940Z,1.00
2022-09-28T15:58:09.129Z,1.00
2022-09-28T16:00:25.241Z,1.00
2022-09-28T16:02:28.062Z,1.00
2022-09-28T16:04:38.607Z,1.00
2022-09-28T16:06:41.834Z,1.00
2022-09-28T16:08:46.042Z,1.00
2022-09-28T16:11:09.047Z,1.00
2022-09-28T16:13:16.010Z,1.00
2022-09-28T16:15:20.597Z,1.00
2022-09-28T16:17:29.771Z,1.00
2022-09-28T16:19:37.020Z,1.00
2022-09-28T16:21:44.967Z,1.00
2022-09-28T16:23:53.225Z,1.00
2022-09-28T16:25:58.671Z,1.00
2022-09-28T16:28:01.698Z,1.00
2022-09-28T16:30:15.123Z,1.00
2022-09-28T16:32:38.171Z,1.00
2022-09-28T16:34:40.845Z,1.00
2022-09-28T16:36:45.397Z,1.00
2022-09-28T16:38:48.622Z,1.00
2022-09-28T16:40:53.818Z,1.00
2022-09-28T16:42:59.891Z,1.00
2022-09-28T16:45:05.188Z,1.00
2022-09-28T16:47:07.901Z,1.00
2022-09-28T16:49:16.129Z,1.00
2022-09-28T16:51:19.000Z,1.00
2022-09-28T16:53:39.397Z,1.00
2022-09-28T16:55:42.091Z,1.00
2022-09-28T16:57:46.175Z,1.00
2022-09-28T16:59:48.849Z,1.00
2022-09-28T17:01:51.644Z,1.00
2022-09-28T17:03:54.385Z,1.00
2022-09-28T17:05:57.098Z,1.00
2022-09-28T17:08:01.324Z,2.50
2022-09-28T17:10:04.341Z,18.20
2022-09-28T17:12:10.099Z,49.70
2022-09-28T17:14:14.116Z,70.60
2022-09-28T17:16:18.346Z,97.40
2022-09-28T17:18:21.063Z,99.90
2022-09-28T17:20:24.759Z,99.90
2022-09-28T17:22:27.439Z,99.90
2022-09-28T17:24:30.121Z,99.90
2022-09-28T17:26:34.509Z,99.90
2022-09-28T17:28:37.849Z,99.90
2022-09-28T17:30:41.930Z,99.90
2022-09-28T17:32:45.791Z,99.90
2022-09-28T17:35:00.732Z,99.90
2022-09-28T17:37:03.700Z,99.90
2022-09-28T17:39:07.322Z,99.90
2022-09-28T17:41:11.851Z,99.90
2022-09-28T17:43:14.563Z,99.90
2022-09-28T17:45:18.113Z,99.90
2022-09-28T17:47:22.154Z,99.90
2022-09-28T17:49:24.875Z,99.90
2022-09-28T17:51:28.437Z,99.90
2022-09-28T17:53:31.110Z,99.90
2022-09-28T17:55:35.114Z,99.90
2022-09-28T17:57:37.805Z,99.90
2022-09-28T17:59:40.502Z,99.90
2022-09-28T18:01:43.248Z,99.90
2022-09-28T18:03:47.366Z,99.90
2022-09-28T18:05:52.670Z,99.90
2022-09-28T18:07:55.489Z,99.90
2022-09-28T18:09:58.452Z,99.90
2022-09-28T18:12:01.974Z,99.90
2022-09-28T18:14:09.087Z,99.90
2022-09-28T18:16:14.152Z,99.90
2022-09-28T18:18:17.073Z,99.90
2022-09-28T18:20:21.384Z,99.90
2022-09-28T18:22:24.379Z,99.90
2022-09-28T18:24:27.209Z,99.90
2022-09-28T18:26:30.048Z,99.90
2022-09-28T18:28:32.860Z,99.90
2022-09-28T18:30:38.245Z,99.90
2022-09-28T18:32:41.318Z,99.90
2022-09-28T18:34:44.066Z,99.90
2022-09-28T18:36:48.319Z,99.90
2022-09-28T18:38:51.071Z,99.90
2022-09-28T18:40:54.829Z,99.90
2022-09-28T18:42:57.611Z,99.90
2022-09-28T18:45:00.370Z,99.90
2022-09-28T18:47:03.255Z,99.90
2022-09-28T18:49:06.003Z,99.90
2022-09-28T18:51:09.426Z,99.90
2022-09-28T18:53:13.542Z,99.90
2022-09-28T18:55:16.427Z,99.90
2022-09-28T18:57:19.401Z,99.90
2022-09-28T18:59:22.459Z,99.90
2022-09-28T19:01:30.040Z,99.90
2022-09-28T19:03:33.782Z,99.90
2022-09-28T19:05:36.553Z,99.90
2022-09-28T19:07:39.314Z,99.90
2022-09-28T19:09:44.126Z,99.90
2022-09-28T19:11:46.933Z,99.90
2022-09-28T19:13:49.718Z,99.90
2022-09-28T19:15:52.556Z,99.90
2022-09-28T19:17:55.682Z,99.90
2022-09-28T19:19:58.778Z,99.90
2022-09-28T19:22:01.593Z,99.90
2022-09-28T19:24:04.622Z,99.90
2022-09-28T19:26:09.575Z,99.90
2022-09-28T19:28:12.378Z,99.90
2022-09-28T19:30:15.177Z,99.90
2022-09-28T19:32:17.973Z,99.90
2022-09-28T19:34:24.221Z,99.90
2022-09-28T19:36:28.452Z,99.90
2022-09-28T19:38:31.360Z,99.90
2022-09-28T19:40:34.833Z,99.90
2022-09-28T19:42:39.559Z,99.90
2022-09-28T19:44:42.375Z,99.90
2022-09-28T19:46:45.469Z,99.90
2022-09-28T19:48:48.498Z,99.90
2022-09-28T19:50:58.491Z,99.90
2022-09-28T19:53:01.739Z,99.90
2022-09-28T19:55:04.683Z,99.90
2022-09-28T19:57:08.895Z,99.90
2022-09-28T19:59:13.587Z,99.90
2022-09-28T20:01:16.477Z,99.90
2022-09-28T20:03:19.530Z,99.90
2022-09-28T20:05:22.694Z,99.90
2022-09-28T20:07:25.543Z,99.90
2022-09-28T20:09:28.321Z,99.90
2022-09-28T20:11:31.380Z,99.90
2022-09-28T20:13:35.143Z,99.90
2022-09-28T20:15:39.357Z,99.90
2022-09-28T20:17:42.146Z,99.90
2022-09-28T20:19:44.939Z,99.90
2022-09-28T20:21:48.188Z,99.90
2022-09-28T20:23:51.245Z,99.90
2022-09-28T20:25:54.067Z,99.90
2022-09-28T20:27:56.854Z,99.90
2022-09-28T20:29:59.907Z,99.90
2022-09-28T20:32:04.784Z,99.90
2022-09-28T20:34:07.609Z,99.90
2022-09-28T20:36:11.803Z,99.90
2022-09-28T20:38:14.570Z,99.90
2022-09-28T20:40:19.381Z,99.90
2022-09-28T20:42:22.221Z,99.90
2022-09-28T20:44:25.098Z,99.90
2022-09-28T20:46:28.013Z,99.90
2022-09-28T20:48:32.198Z,99.90
2022-09-28T20:50:34.984Z,99.90
2022-09-28T20:52:37.759Z,99.90
2022-09-28T20:54:40.527Z,99.90
2022-09-28T20:56:43.328Z,99.90
2022-09-28T20:58:46.107Z,99.90
2022-09-28T21:00:48.883Z,99.90
2022-09-28T21:02:54.722Z,99.90
2022-09-28T21:04:58.882Z,99.90
2022-09-28T21:07:01.823Z,99.90
2022-09-28T21:09:04.739Z,99.90
2022-09-28T21:11:08.262Z,99.90
2022-09-28T21:13:11.170Z,99.90
2022-09-28T21:15:14.034Z,99.90
2022-09-28T21:17:16.832Z,99.90
2022-09-28T21:19:20.546Z,99.90
2022-09-28T21:21:24.755Z,99.90
2022-09-28T21:23:27.523Z,99.90
2022-09-28T21:25:30.285Z,99.90
2022-09-28T21:27:33.253Z,99.90
2022-09-28T21:29:36.030Z,99.90
2022-09-28T21:31:40.260Z,99.90
2022-09-28T21:33:43.123Z,99.90
2022-09-28T21:35:45.913Z,99.90
2022-09-28T21:37:50.028Z,99.90
2022-09-28T21:39:52.921Z,99.90
2022-09-28T21:41:55.713Z,99.90
2022-09-28T21:43:58.620Z,99.90
2022-09-28T21:46:01.407Z,99.90
2022-09-28T21:48:04.208Z,99.90
2022-09-28T21:50:07.987Z,99.90
2022-09-28T21:52:10.790Z,99.90
2022-09-28T21:54:15.014Z,99.90
2022-09-28T21:56:17.915Z,99.90
2022-09-28T21:58:23.381Z,99.90
2022-09-28T22:00:26.209Z,99.90
2022-09-28T22:02:29.777Z,99.90
2022-09-28T22:04:32.641Z,99.90
2022-09-28T22:06:35.449Z,99.90
2022-09-28T22:08:38.479Z,99.90
2022-09-28T22:10:43.043Z,99.90
2022-09-28T22:12:45.860Z,99.90
2022-09-28T22:14:48.602Z,99.90
2022-09-28T22:16:51.397Z,99.90
2022-09-28T22:18:54.189Z,99.90
2022-09-28T22:21:00.590Z,99.90
2022-09-28T22:23:03.345Z,99.90
2022-09-28T22:25:07.136Z,99.90
2022-09-28T22:27:11.284Z,99.90
2022-09-28T22:29:14.048Z,99.90
2022-09-28T22:31:17.297Z,99.90
2022-09-28T22:33:20.122Z,99.90
2022-09-28T22:35:22.910Z,99.90
2022-09-28T22:37:27.970Z,99.90
2022-09-28T22:39:34.313Z,99.90
2022-09-28T22:41:40.178Z,99.90
2022-09-28T22:43:44.389Z,99.90
2022-09-28T22:45:47.263Z,99.90
2022-09-28T22:47:50.082Z,99.90
2022-09-28T22:49:52.857Z,99.90
2022-09-28T22:51:55.625Z,99.90
2022-09-28T22:53:58.523Z,99.90
2022-09-28T22:56:01.612Z,99.90
2022-09-28T22:58:04.484Z,99.90
2022-09-28T23:00:10.095Z,99.90
2022-09-28T23:02:12.910Z,99.90
2022-09-28T23:04:15.695Z,99.90
2022-09-28T23:06:20.964Z,99.90
2022-09-28T23:08:23.882Z,99.90
2022-09-28T23:10:26.678Z,99.90
2022-09-28T23:12:30.449Z,99.90
2022-09-28T23:14:33.242Z,99.90
2022-09-28T23:16:37.371Z,99.90
2022-09-28T23:18:40.774Z,99.90
2022-09-28T23:20:43.547Z,99.90
2022-09-28T23:22:47.435Z,99.90
2022-09-28T23:24:50.210Z,99.90
2022-09-28T23:26:52.981Z,99.90
2022-09-28T23:28:55.815Z,99.90
2022-09-28T23:30:58.722Z,99.90
2022-09-28T23:33:02.882Z,99.90
2022-09-28T23:35:06.527Z,99.90
2022-09-28T23:37:09.349Z,99.90
2022-09-28T23:39:12.675Z,99.90
2022-09-28T23:41:15.442Z,99.90
2022-09-28T23:43:18.325Z,99.90
2022-09-28T23:45:21.102Z,99.90
2022-09-28T23:47:23.930Z,99.90
2022-09-28T23:49:28.523Z,99.90
2022-09-28T23:51:31.860Z,99.90
2022-09-28T23:53:34.620Z,99.90
2022-09-28T23:55:37.398Z,99.90
2022-09-28T23:57:41.012Z,99.90
2022-09-28T23:59:43.773Z,99.90
